Latest Weather Observations for Wiluna Airport

IDW60801

Issued at 8:23 am WST Wednesday 16 January 2019 (issued every 10 minutes, with the page automatically refreshed every 10 minutes)

About weather observations | Map of weather stations | Latest weather observations for WA | Other Formats
Station Details ID: 013044 Name: WILUNA AERO Lat: -26.63 Lon: 120.22 Height: 502.4 m
Data from the previous 72 hours. | See also: Recent months at Wiluna Airport
Date/Time
WST
Temp
°C
App
Temp
°C
Dew
Point
°C
Rel
Hum
%
Delta-T
°C
Wind Press
QNH
hPa
Press
MSL
hPa
Rain since
9am
mm
Dir  Spd
km/h
Gust
km/h
Spd
kts
Gust
kts
15/06:30pm 38.6 34.3 9.2 17 17.4 SW 22 46 12 25 1005.2 1001.1 0.0
15/06:29pm 38.8 34.9 9.4 17 17.5 SW 20 46 11 25 1005.1 1001.0 0.0
15/06:00pm 40.6 36.4 5.7 12 19.9 SSW 17 22 9 12 1004.2 1000.1 0.0
15/05:30pm 40.7 36.2 6.9 13 19.5 SSW 20 30 11 16 1004.0 999.9 0.0
15/05:00pm 40.6 36.1 6.8 13 19.6 SSW 20 26 11 14 1003.9 999.8 0.0
15/04:30pm 40.9 36.2 5.9 12 19.9 WSW 20 35 11 19 1004.0 999.9 0.0
15/04:00pm 43.0 38.6 4.9 10 21.7 NNW 17 32 9 17 1003.9 999.8 0.0
15/03:30pm 43.1 40.0 3.4 9 22.1 ENE 9 15 5 8 1004.0 999.9 0.0
15/03:00pm 43.7 40.3 3.9 9 22.4 ENE 11 20 6 11 1004.2 1000.1 0.0
15/02:30pm 44.1 41.1 4.2 9 22.5 NNW 9 20 5 11 1004.8 1000.7 0.0
15/02:00pm 43.6 40.1 5.3 10 22.0 E 13 22 7 12 1005.1 1001.0 0.0
15/01:30pm 44.0 41.3 5.6 10 22.1 SSE 9 15 5 8 1005.5 1001.5 0.0
15/01:00pm 43.3 40.5 5.1 10 21.8 E 9 19 5 10 1006.0 1001.9 0.0
15/12:30pm 43.3 39.3 5.1 10 21.8 SE 15 30 8 16 1006.4 1002.3 0.0
15/12:00pm 42.7 39.0 4.6 10 21.5 ESE 13 24 7 13 1006.8 1002.7 0.0
15/11:30am 43.0 39.3 6.2 11 21.3 SE 15 22 8 12 1007.3 1003.3 0.0
15/11:00am 42.3 37.5 5.7 11 21.0 E 20 33 11 18 1007.5 1003.5 0.0
15/10:30am 41.5 35.4 6.4 12 20.2 ESE 28 43 15 23 1007.8 1003.7 0.0
15/10:00am 40.5 33.7 6.7 13 19.5 ESE 32 44 17 24 1008.2 1004.1 0.0
15/09:30am 39.3 32.5 6.9 14 18.6 ESE 32 48 17 26 1008.6 1004.5 0.0
15/09:00am 38.0 31.4 8.7 17 17.2 ESE 33 43 18 23 1008.7 1004.6 0.0
15/08:30am 37.2 31.5 9.7 19 16.3 SE 30 35 16 19 1009.0 1004.9 0.0
15/08:00am 35.6 29.5 10.6 22 15.0 SE 33 41 18 22 1009.1 1005.1 0.0
15/07:30am 34.7 30.0 10.5 23 14.4 SE 26 32 14 17 1008.9 1004.8 0.0
15/07:00am 33.1 29.7 10.4 25 13.4 S 19 24 10 13 1008.8 1004.7 0.0
15/06:30am 31.7 28.8 11.0 28 12.2 SSE 17 20 9 11 1008.6 1004.5 0.0
15/06:00am 31.4 29.2 10.7 28 12.2 SE 13 15 7 8 1008.4 1004.3 0.0
15/05:30am 31.0 29.2 10.9 29 11.8 SE 11 13 6 7 1008.0 1003.9 0.0
15/05:00am 30.6 29.1 10.5 29 11.8 SSE 9 13 5 7 1007.5 1003.5 0.0
15/04:30am 31.3 29.8 10.6 28 12.1 SSE 9 11 5 6 1007.3 1003.3 0.0
15/04:00am 31.9 30.0 10.6 27 12.6 SSE 11 13 6 7 1007.2 1003.1 0.0
15/03:30am 32.8 30.6 10.8 26 13.0 S 13 15 7 8 1007.0 1002.9 0.0
15/03:00am 33.4 30.8 10.7 25 13.5 SSE 15 20 8 11 1007.2 1003.1 0.0
15/02:30am 33.9 30.5 10.5 24 13.9 SE 19 24 10 13 1007.4 1003.4 0.0
15/02:00am 34.6 30.8 9.8 22 14.6 SSE 20 28 11 15 1007.4 1003.4 0.0
15/01:30am 34.9 31.0 9.3 21 14.9 S 20 24 11 13 1006.8 1002.7 0.0
15/01:00am 35.0 31.8 10.1 22 14.8 SW 17 24 9 13 1007.1 1003.0 0.0
15/12:30am 35.1 32.0 10.2 22 14.7 SW 17 24 9 13 1007.8 1003.7 0.0
15/12:00am 35.4 32.3 10.4 22 14.9 WSW 17 24 9 13 1008.6 1004.5 0.0
 
Date/Time
WST
Temp
°C
App
Temp
°C
Dew
Point
°C
Rel
Hum
%
Delta-T
°C
Wind Press
QNH
hPa
Press
MSL
hPa
Rain since
9am
mm
Dir  Spd
km/h
Gust
km/h
Spd
kts
Gust
kts
14/11:30pm 35.0 30.5 11.4 24 14.2 W 26 41 14 22 1008.2 1004.1 0.0
14/11:00pm 35.5 32.5 10.5 22 14.9 WSW 17 26 9 14 1008.3 1004.2 0.0
14/10:30pm 35.7 31.4 10.7 22 15.0 SSW 24 32 13 17 1008.2 1004.1 0.0
14/10:00pm 36.2 32.6 10.4 21 15.4 SW 20 32 11 17 1008.4 1004.3 0.0
14/09:30pm 35.0 33.9 7.1 18 15.8 NE 2 9 1 5 1007.8 1003.7 0.0
14/09:00pm 34.8 34.1 7.0 18 15.7 CALM 0 0 0 0 1007.4 1003.4 0.0
14/08:30pm 35.0 34.2 6.3 17 16.0 CALM 0 0 0 0 1007.1 1003.0 0.0
14/08:00pm 36.8 34.7 5.9 15 17.3 NE 6 7 3 4 1006.7 1002.6 0.0
14/07:30pm 38.4 35.8 6.2 14 18.2 NE 9 11 5 6 1006.4 1002.3 0.0
14/07:00pm 39.9 36.6 6.3 13 19.2 NE 13 17 7 9 1006.1 1002.0 0.0
14/06:30pm 40.9 37.1 5.9 12 19.9 NE 15 20 8 11 1005.8 1001.7 0.0
14/06:00pm 41.3 36.8 6.2 12 20.2 ENE 19 24 10 13 1005.7 1001.6 0.0
14/05:30pm 41.6 37.0 6.4 12 20.3 E 20 28 11 15 1005.5 1001.5 0.0
14/05:00pm 42.7 37.6 6.0 11 21.2 E 22 30 12 16 1005.4 1001.3 0.0
14/04:30pm 43.0 38.9 6.2 11 21.3 NE 17 24 9 13 1005.4 1001.3 0.0
14/04:00pm 42.2 39.1 5.6 11 21.0 NE 11 15 6 8 1005.8 1001.7 0.0
14/03:30pm 41.9 38.3 6.7 12 20.4 ENE 15 20 8 11 1006.2 1002.1 0.0
14/03:00pm 41.4 38.5 6.3 12 20.2 NNE 11 22 6 12 1006.6 1002.5 0.0
14/02:30pm 40.9 37.0 7.1 13 19.6 ENE 17 24 9 13 1007.0 1002.9 0.0
14/02:00pm 40.5 36.1 6.7 13 19.5 NE 19 24 10 13 1007.5 1003.5 0.0
14/01:30pm 39.9 36.4 7.4 14 18.8 NE 15 22 8 12 1007.9 1003.8 0.0
14/01:00pm 39.0 35.6 7.7 15 18.2 NNE 15 20 8 11 1008.5 1004.4 0.0
14/12:30pm 38.6 34.6 8.3 16 17.7 NE 19 28 10 15 1008.7 1004.6 0.0
14/12:00pm 38.2 33.9 8.0 16 17.6 ENE 20 32 11 17 1008.8 1004.7 0.0
14/11:30am 37.9 33.4 8.6 17 17.1 NE 22 28 12 15 1009.4 1005.4 0.0
14/11:00am 38.3 32.9 8.1 16 17.6 NE 26 35 14 19 1009.7 1005.7 0.0
14/10:30am 38.3 32.9 8.1 16 17.6 NE 26 35 14 19 1010.2 1006.1 0.0
14/10:00am 38.5 33.5 8.2 16 17.7 NE 24 35 13 19 1010.3 1006.2 0.0
14/09:30am 38.2 34.4 8.9 17 17.2 NE 19 26 10 14 1010.3 1006.2 0.0
14/09:00am 37.9 34.0 8.6 17 17.2 ENE 19 35 10 19 1010.3 1006.2 0.2
14/08:30am 35.6 33.5 9.9 21 15.2 ENE 11 15 6 8 1010.4 1006.3 0.2
14/08:00am 33.0 30.7 9.1 23 13.8 ESE 11 15 6 8 1010.4 1006.3 0.2
14/07:30am 32.1 30.8 11.3 28 12.4 S 9 11 5 6 1010.1 1006.0 0.2
14/07:00am 31.4 29.6 10.7 28 12.2 SSE 11 15 6 8 1009.7 1005.7 0.2
14/06:30am 32.0 30.4 8.9 24 13.2 N 7 11 4 6 1009.7 1005.7 0.2
14/06:00am 29.6 28.4 9.7 29 11.4 N 6 7 3 4 1009.4 1005.4 0.2
14/05:30am 29.2 27.7 9.3 29 11.3 N 7 7 4 4 1009.1 1005.1 0.2
14/05:00am 29.5 27.0 9.6 29 11.4 N 13 17 7 9 1009.0 1004.9 0.2
14/04:30am 29.2 27.7 9.3 29 11.3 NW 7 11 4 6 1008.6 1004.5 0.2
14/04:00am 29.0 27.7 9.2 29 11.3 NW 6 6 3 3 1008.3 1004.2 0.2
14/03:30am 29.5 28.6 9.1 28 11.6 NW 4 7 2 4 1008.1 1004.0 0.2
14/03:00am 29.5 27.6 9.1 28 11.6 NW 9 9 5 5 1008.0 1003.9 0.2
14/02:30am 30.1 28.8 9.1 27 12.0 NW 6 7 3 4 1008.1 1004.0 0.2
14/02:00am 31.2 29.5 10.0 27 12.3 NW 9 11 5 6 1008.0 1003.9 0.2
14/01:30am 31.8 30.0 9.3 25 13.0 NW 9 11 5 6 1008.3 1004.2 0.2
14/01:00am 31.9 31.4 9.4 25 13.0 NW 2 9 1 5 1008.5 1004.4 0.2
14/12:30am 32.9 31.0 9.0 23 13.8 NW 9 11 5 6 1008.3 1004.2 0.2
14/12:00am 34.0 32.7 9.3 22 14.4 W 6 9 3 5 1008.5 1004.4 0.2
 
Date/Time
WST
Temp
°C
App
Temp
°C
Dew
Point
°C
Rel
Hum
%
Delta-T
°C
Wind Press
QNH
hPa
Press
MSL
hPa
Rain since
9am
mm
Dir  Spd
km/h
Gust
km/h
Spd
kts
Gust
kts
13/11:30pm 35.7 33.8 7.7 18 16.0 NE 7 13 4 7 1008.6 1004.5 0.2
13/11:00pm 35.8 32.6 7.0 17 16.3 ENE 13 19 7 10 1009.0 1004.9 0.2
13/10:30pm 34.2 32.6 6.5 18 15.4 NE 4 9 2 5 1008.6 1004.5 0.2
13/10:00pm 35.8 33.8 6.1 16 16.6 NE 6 7 3 4 1008.4 1004.3 0.2
13/09:30pm 36.7 33.9 6.8 16 16.9 NE 11 15 6 8 1008.3 1004.2 0.2
13/09:00pm 36.6 34.0 7.6 17 16.7 S 11 13 6 7 1008.3 1004.2 0.2
13/08:30pm 37.9 33.9 6.8 15 17.7 SE 17 20 9 11 1008.5 1004.4 0.2
13/08:00pm 37.8 31.7 6.7 15 17.7 SE 28 37 15 20 1008.8 1004.7 0.2
13/07:30pm 38.4 34.5 7.2 15 17.9 W 17 24 9 13 1008.7 1004.6 0.2
13/07:00pm 39.5 34.8 6.0 13 19.0 WSW 20 26 11 14 1008.9 1004.8 0.2
13/06:30pm 39.0 33.3 6.7 14 18.5 SW 26 41 14 22 1008.7 1004.6 0.2
13/06:00pm 38.7 34.5 7.4 15 18.1 SSW 19 35 10 19 1008.5 1004.4 0.2
13/05:52pm 38.7 34.5 7.4 15 18.1 SSW 19 43 10 23 1008.5 1004.4 0.2
13/05:38pm 38.4 32.5 9.0 17 17.3 SSW 30 65 16 35 1008.8 1004.7 0.2
13/05:30pm 39.2 32.4 7.8 15 18.3 WSW 33 70 18 38 1008.6 1004.5 0.2
13/05:28pm 39.7 31.8 6.1 13 19.1 WSW 37 80 20 43 1008.5 1004.4 0.2
13/05:25pm 40.1 32.4 5.3 12 19.6 WSW 35 80 19 43 1007.9 1003.8 0.2
13/05:24pm 39.4 32.4 7.0 14 18.6 WSW 33 80 18 43 1008.0 1003.9 0.2
13/05:21pm 39.2 32.8 6.8 14 18.6 SW 30 80 16 43 1007.5 1003.5 0.2
13/05:20pm 39.3 33.0 5.8 13 18.9 SW 28 80 15 43 1007.6 1003.6 0.2
13/05:00pm 38.6 33.7 8.3 16 17.7 WSW 24 43 13 23 1007.5 1003.5 0.2
13/04:30pm 39.4 35.2 9.8 17 17.7 SSE 22 30 12 16 1006.1 1002.0 0.2
13/04:00pm 40.6 37.3 10.8 17 18.2 ESE 19 28 10 15 1006.3 1002.2 0.2
13/03:44pm 39.3 34.5 8.9 16 18.0 N 24 44 13 24 1006.6 1002.5 0.0
13/03:30pm 44.4 39.6 4.4 9 22.7 N 19 35 10 19 1006.2 1002.1 0.0
13/03:00pm 43.9 41.4 4.0 9 22.5 NW 6 11 3 6 1006.6 1002.5 0.0
13/02:30pm 44.3 38.9 2.7 8 23.0 N 20 35 11 19 1007.3 1003.3 0.0
13/02:00pm 45.2 40.9 3.3 8 23.5 NW 15 24 8 13 1007.6 1003.6 0.0
13/01:30pm 45.4 40.8 3.5 8 23.6 NNE 17 30 9 16 1008.2 1004.1 0.0
13/01:00pm 44.6 38.9 2.9 8 23.2 N 22 33 12 18 1008.7 1004.6 0.0
13/12:30pm 44.8 39.8 4.7 9 22.9 N 20 33 11 18 1009.0 1004.9 0.0
13/12:00pm 44.1 38.6 4.2 9 22.6 NNE 22 37 12 20 1009.3 1005.3 0.0
13/11:30am 43.4 38.8 3.7 9 22.2 N 17 28 9 15 1009.7 1005.7 0.0
13/11:00am 44.4 39.4 4.4 9 22.7 N 20 28 11 15 1010.3 1006.2 0.0
13/10:30am 42.9 37.6 4.8 10 21.6 N 22 35 12 19 1010.6 1006.5 0.0
13/10:00am 42.3 37.8 4.3 10 21.3 NNE 17 30 9 16 1011.0 1007.0 0.0
13/09:30am 41.0 36.0 4.7 11 20.3 N 20 33 11 18 1011.3 1007.3 0.0
13/09:00am 40.5 37.3 6.7 13 19.5 N 13 20 7 11 1011.6 1007.6 0.0
13/08:30am 38.0 35.4 7.8 16 17.5 N 11 15 6 8 1012.0 1007.9 0.0

Other Formats:

Comma delimited format used in spreadsheet applications
http://www.bom.gov.au/fwo/IDW60801/IDW60801.95439.axf

JavaScript Object Notation format (JSON) in row-major order
http://www.bom.gov.au/fwo/IDW60801/IDW60801.95439.json